sensor_id;sensor_type;location;lat;lon;timestamp;pressure;altitude;pressure_sealevel;temperature
65823;BMP180;52585;47.566;19.056;2022-10-16T00:01:28;100825.80;;;16.74
65823;BMP180;52585;47.566;19.056;2022-10-16T00:03:56;100824.60;;;16.70
65823;BMP180;52585;47.566;19.056;2022-10-16T00:06:24;100825.20;;;16.70
65823;BMP180;52585;47.566;19.056;2022-10-16T00:08:52;100827.00;;;16.70
65823;BMP180;52585;47.566;19.056;2022-10-16T00:11:25;100821.80;;;16.70
65823;BMP180;52585;47.566;19.056;2022-10-16T00:13:58;100822.20;;;16.70
65823;BMP180;52585;47.566;19.056;2022-10-16T00:16:25;100815.00;;;16.70
65823;BMP180;52585;47.566;19.056;2022-10-16T00:18:52;100819.20;;;16.70
65823;BMP180;52585;47.566;19.056;2022-10-16T00:21:22;100822.00;;;16.70
65823;BMP180;52585;47.566;19.056;2022-10-16T00:23:53;100827.20;;;16.70
65823;BMP180;52585;47.566;19.056;2022-10-16T00:26:20;100831.40;;;16.68
65823;BMP180;52585;47.566;19.056;2022-10-16T00:28:49;100838.20;;;16.62
65823;BMP180;52585;47.566;19.056;2022-10-16T00:31:16;100843.20;;;16.64
65823;BMP180;52585;47.566;19.056;2022-10-16T00:33:43;100847.00;;;16.62
65823;BMP180;52585;47.566;19.056;2022-10-16T00:36:13;100841.60;;;16.64
65823;BMP180;52585;47.566;19.056;2022-10-16T00:38:40;100845.20;;;16.68
65823;BMP180;52585;47.566;19.056;2022-10-16T00:41:12;100848.20;;;16.68
65823;BMP180;52585;47.566;19.056;2022-10-16T00:43:50;100852.40;;;16.68
65823;BMP180;52585;47.566;19.056;2022-10-16T00:51:31;100852.80;;;16.68
65823;BMP180;52585;47.566;19.056;2022-10-16T00:54:00;100855.40;;;16.70
65823;BMP180;52585;47.566;19.056;2022-10-16T00:56:27;100851.00;;;16.70
65823;BMP180;52585;47.566;19.056;2022-10-16T00:58:53;100852.40;;;16.66
65823;BMP180;52585;47.566;19.056;2022-10-16T01:01:19;100859.80;;;16.64
65823;BMP180;52585;47.566;19.056;2022-10-16T01:03:45;100865.80;;;16.60
65823;BMP180;52585;47.566;19.056;2022-10-16T01:06:28;100863.20;;;16.60
65823;BMP180;52585;47.566;19.056;2022-10-16T01:18:06;100865.20;;;16.60
65823;BMP180;52585;47.566;19.056;2022-10-16T01:20:44;100866.40;;;16.60
65823;BMP180;52585;47.566;19.056;2022-10-16T01:29:08;100875.00;;;16.60
65823;BMP180;52585;47.566;19.056;2022-10-16T01:31:40;100876.80;;;16.60
65823;BMP180;52585;47.566;19.056;2022-10-16T01:34:22;100878.00;;;16.60
65823;BMP180;52585;47.566;19.056;2022-10-16T01:37:00;100875.60;;;16.60
65823;BMP180;52585;47.566;19.056;2022-10-16T01:39:34;100878.00;;;16.60
65823;BMP180;52585;47.566;19.056;2022-10-16T01:42:20;100882.60;;;16.50
65823;BMP180;52585;47.566;19.056;2022-10-16T01:44:49;100886.20;;;16.50
65823;BMP180;52585;47.566;19.056;2022-10-16T01:47:22;100889.40;;;16.50
65823;BMP180;52585;47.566;19.056;2022-10-16T01:49:57;100893.00;;;16.40
65823;BMP180;52585;47.566;19.056;2022-10-16T01:52:28;100896.00;;;16.40
65823;BMP180;52585;47.566;19.056;2022-10-16T01:54:57;100897.00;;;16.40
65823;BMP180;52585;47.566;19.056;2022-10-16T01:57:26;100900.00;;;16.40
65823;BMP180;52585;47.566;19.056;2022-10-16T02:00:11;100896.40;;;16.40
65823;BMP180;52585;47.566;19.056;2022-10-16T02:02:43;100904.60;;;16.32
65823;BMP180;52585;47.566;19.056;2022-10-16T02:07:49;100913.80;;;16.30
65823;BMP180;52585;47.566;19.056;2022-10-16T02:10:24;100909.40;;;16.28
65823;BMP180;52585;47.566;19.056;2022-10-16T02:16:07;100915.60;;;16.20
65823;BMP180;52585;47.566;19.056;2022-10-16T02:18:34;100908.40;;;16.16
65823;BMP180;52585;47.566;19.056;2022-10-16T02:21:25;100906.80;;;16.10
65823;BMP180;52585;47.566;19.056;2022-10-16T02:24:25;100904.40;;;16.10
65823;BMP180;52585;47.566;19.056;2022-10-16T02:29:53;100910.20;;;16.00
65823;BMP180;52585;47.566;19.056;2022-10-16T02:32:30;100908.60;;;15.90
65823;BMP180;52585;47.566;19.056;2022-10-16T02:35:01;100913.40;;;15.90
65823;BMP180;52585;47.566;19.056;2022-10-16T02:37:30;100913.00;;;15.90
65823;BMP180;52585;47.566;19.056;2022-10-16T02:39:59;100914.40;;;15.80
65823;BMP180;52585;47.566;19.056;2022-10-16T02:42:37;100916.80;;;15.80
65823;BMP180;52585;47.566;19.056;2022-10-16T02:45:04;100918.00;;;15.80
65823;BMP180;52585;47.566;19.056;2022-10-16T02:47:31;100915.60;;;15.80
65823;BMP180;52585;47.566;19.056;2022-10-16T02:49:57;100916.40;;;15.80
65823;BMP180;52585;47.566;19.056;2022-10-16T02:52:26;100919.40;;;15.80
65823;BMP180;52585;47.566;19.056;2022-10-16T02:54:52;100919.40;;;15.74
65823;BMP180;52585;47.566;19.056;2022-10-16T02:57:19;100920.80;;;15.70
65823;BMP180;52585;47.566;19.056;2022-10-16T02:59:45;100923.40;;;15.70
65823;BMP180;52585;47.566;19.056;2022-10-16T03:02:11;100923.00;;;15.70
65823;BMP180;52585;47.566;19.056;2022-10-16T03:04:42;100927.20;;;15.70
65823;BMP180;52585;47.566;19.056;2022-10-16T03:07:08;100925.60;;;15.68
65823;BMP180;52585;47.566;19.056;2022-10-16T03:09:41;100928.40;;;15.60
65823;BMP180;52585;47.566;19.056;2022-10-16T03:12:07;100933.40;;;15.60
65823;BMP180;52585;47.566;19.056;2022-10-16T03:14:33;100935.60;;;15.60
65823;BMP180;52585;47.566;19.056;2022-10-16T03:16:59;100937.60;;;15.50
65823;BMP180;52585;47.566;19.056;2022-10-16T03:19:25;100938.40;;;15.50
65823;BMP180;52585;47.566;19.056;2022-10-16T03:21:50;100939.20;;;15.50
65823;BMP180;52585;47.566;19.056;2022-10-16T03:24:16;100944.00;;;15.50
65823;BMP180;52585;47.566;19.056;2022-10-16T03:26:42;100942.80;;;15.42
65823;BMP180;52585;47.566;19.056;2022-10-16T03:29:08;100941.80;;;15.40
65823;BMP180;52585;47.566;19.056;2022-10-16T03:31:35;100956.20;;;15.40
65823;BMP180;52585;47.566;19.056;2022-10-16T03:34:01;100953.20;;;15.40
65823;BMP180;52585;47.566;19.056;2022-10-16T03:36:27;100958.00;;;15.40
65823;BMP180;52585;47.566;19.056;2022-10-16T03:38:54;100954.00;;;15.36
65823;BMP180;52585;47.566;19.056;2022-10-16T03:41:20;100956.80;;;15.30
65823;BMP180;52585;47.566;19.056;2022-10-16T03:43:46;100963.40;;;15.30
65823;BMP180;52585;47.566;19.056;2022-10-16T03:46:12;100960.60;;;15.30
65823;BMP180;52585;47.566;19.056;2022-10-16T03:48:38;100961.20;;;15.30
65823;BMP180;52585;47.566;19.056;2022-10-16T03:51:05;100963.00;;;15.20
65823;BMP180;52585;47.566;19.056;2022-10-16T03:53:31;100961.20;;;15.20
65823;BMP180;52585;47.566;19.056;2022-10-16T03:55:57;100959.00;;;15.18
65823;BMP180;52585;47.566;19.056;2022-10-16T03:58:23;100959.00;;;15.10
65823;BMP180;52585;47.566;19.056;2022-10-16T04:00:49;100963.20;;;15.10
65823;BMP180;52585;47.566;19.056;2022-10-16T04:03:17;100963.40;;;15.10
65823;BMP180;52585;47.566;19.056;2022-10-16T04:05:44;100968.20;;;15.02
65823;BMP180;52585;47.566;19.056;2022-10-16T04:08:10;100967.40;;;15.00
65823;BMP180;52585;47.566;19.056;2022-10-16T04:10:36;100965.60;;;15.00
65823;BMP180;52585;47.566;19.056;2022-10-16T04:13:03;100973.40;;;15.00
65823;BMP180;52585;47.566;19.056;2022-10-16T04:15:29;100971.20;;;14.90
65823;BMP180;52585;47.566;19.056;2022-10-16T04:17:56;100970.40;;;14.90
65823;BMP180;52585;47.566;19.056;2022-10-16T04:20:22;100975.20;;;14.90
65823;BMP180;52585;47.566;19.056;2022-10-16T04:22:48;100978.00;;;14.90
65823;BMP180;52585;47.566;19.056;2022-10-16T04:25:14;100979.40;;;14.90
65823;BMP180;52585;47.566;19.056;2022-10-16T04:27:40;100975.20;;;14.80
65823;BMP180;52585;47.566;19.056;2022-10-16T04:30:07;100970.40;;;14.80
65823;BMP180;52585;47.566;19.056;2022-10-16T04:32:33;100974.20;;;14.80
65823;BMP180;52585;47.566;19.056;2022-10-16T04:35:00;100975.60;;;14.80
65823;BMP180;52585;47.566;19.056;2022-10-16T04:37:28;100983.00;;;14.70
65823;BMP180;52585;47.566;19.056;2022-10-16T04:39:54;100987.80;;;14.70
65823;BMP180;52585;47.566;19.056;2022-10-16T04:42:20;100991.80;;;14.70
65823;BMP180;52585;47.566;19.056;2022-10-16T04:44:51;100994.40;;;14.62
65823;BMP180;52585;47.566;19.056;2022-10-16T04:47:17;100991.20;;;14.60
65823;BMP180;52585;47.566;19.056;2022-10-16T04:49:43;100990.40;;;14.60
65823;BMP180;52585;47.566;19.056;2022-10-16T04:52:09;100987.60;;;14.60
65823;BMP180;52585;47.566;19.056;2022-10-16T04:54:37;100985.00;;;14.52
65823;BMP180;52585;47.566;19.056;2022-10-16T04:57:03;100993.00;;;14.50
65823;BMP180;52585;47.566;19.056;2022-10-16T04:59:30;100995.80;;;14.50
65823;BMP180;52585;47.566;19.056;2022-10-16T05:01:57;100997.60;;;14.50
65823;BMP180;52585;47.566;19.056;2022-10-16T05:04:24;100998.60;;;14.50
65823;BMP180;52585;47.566;19.056;2022-10-16T05:06:50;100995.40;;;14.48
65823;BMP180;52585;47.566;19.056;2022-10-16T05:09:17;100994.60;;;14.40
65823;BMP180;52585;47.566;19.056;2022-10-16T05:11:43;101000.00;;;14.40
65823;BMP180;52585;47.566;19.056;2022-10-16T05:14:09;101002.40;;;14.40
65823;BMP180;52585;47.566;19.056;2022-10-16T05:16:37;101004.40;;;14.40
65823;BMP180;52585;47.566;19.056;2022-10-16T05:19:02;101002.00;;;14.40
65823;BMP180;52585;47.566;19.056;2022-10-16T05:21:28;101008.80;;;14.30
65823;BMP180;52585;47.566;19.056;2022-10-16T05:23:56;101009.00;;;14.30
65823;BMP180;52585;47.566;19.056;2022-10-16T05:26:22;101010.80;;;14.30
65823;BMP180;52585;47.566;19.056;2022-10-16T05:29:06;101014.20;;;14.30
65823;BMP180;52585;47.566;19.056;2022-10-16T05:31:39;101025.40;;;14.20
65823;BMP180;52585;47.566;19.056;2022-10-16T05:34:05;101023.20;;;14.22
65823;BMP180;52585;47.566;19.056;2022-10-16T05:36:31;101022.80;;;14.26
65823;BMP180;52585;47.566;19.056;2022-10-16T05:38:57;101025.40;;;14.24
65823;BMP180;52585;47.566;19.056;2022-10-16T05:41:22;101032.20;;;14.22
65823;BMP180;52585;47.566;19.056;2022-10-16T05:43:52;101032.40;;;14.24
65823;BMP180;52585;47.566;19.056;2022-10-16T05:46:19;101032.20;;;14.20
65823;BMP180;52585;47.566;19.056;2022-10-16T05:48:45;101028.20;;;14.20
65823;BMP180;52585;47.566;19.056;2022-10-16T05:51:14;101028.60;;;14.20
65823;BMP180;52585;47.566;19.056;2022-10-16T05:53:42;101030.40;;;14.20
65823;BMP180;52585;47.566;19.056;2022-10-16T05:56:11;101034.80;;;14.20
65823;BMP180;52585;47.566;19.056;2022-10-16T05:58:39;101030.80;;;14.20
65823;BMP180;52585;47.566;19.056;2022-10-16T06:01:17;101039.40;;;14.20
65823;BMP180;52585;47.566;19.056;2022-10-16T06:03:45;101047.00;;;14.20
65823;BMP180;52585;47.566;19.056;2022-10-16T06:06:18;101048.00;;;14.20
65823;BMP180;52585;47.566;19.056;2022-10-16T06:08:46;101060.20;;;14.20
65823;BMP180;52585;47.566;19.056;2022-10-16T06:11:23;101060.60;;;14.20
65823;BMP180;52585;47.566;19.056;2022-10-16T06:13:52;101061.60;;;14.30
65823;BMP180;52585;47.566;19.056;2022-10-16T06:16:18;101057.40;;;14.30
65823;BMP180;52585;47.566;19.056;2022-10-16T06:18:45;101059.00;;;14.32
65823;BMP180;52585;47.566;19.056;2022-10-16T06:21:17;101061.00;;;14.40
65823;BMP180;52585;47.566;19.056;2022-10-16T06:23:45;101063.40;;;14.40
65823;BMP180;52585;47.566;19.056;2022-10-16T06:26:20;101066.40;;;14.40
65823;BMP180;52585;47.566;19.056;2022-10-16T06:28:47;101070.00;;;14.48
65823;BMP180;52585;47.566;19.056;2022-10-16T06:31:14;101073.60;;;14.50
65823;BMP180;52585;47.566;19.056;2022-10-16T06:33:41;101076.60;;;14.50
65823;BMP180;52585;47.566;19.056;2022-10-16T06:36:11;101083.20;;;14.52
65823;BMP180;52585;47.566;19.056;2022-10-16T06:38:38;101084.40;;;14.60
65823;BMP180;52585;47.566;19.056;2022-10-16T06:41:06;101086.40;;;14.60
65823;BMP180;52585;47.566;19.056;2022-10-16T06:43:33;101097.00;;;14.70
65823;BMP180;52585;47.566;19.056;2022-10-16T06:46:04;101111.20;;;14.70
65823;BMP180;52585;47.566;19.056;2022-10-16T06:48:32;101113.00;;;14.80
65823;BMP180;52585;47.566;19.056;2022-10-16T06:51:06;101113.40;;;14.80
65823;BMP180;52585;47.566;19.056;2022-10-16T06:53:38;101106.20;;;14.82
65823;BMP180;52585;47.566;19.056;2022-10-16T06:56:13;101107.40;;;14.90
65823;BMP180;52585;47.566;19.056;2022-10-16T06:58:41;101105.20;;;14.90
65823;BMP180;52585;47.566;19.056;2022-10-16T07:01:09;101108.80;;;14.90
65823;BMP180;52585;47.566;19.056;2022-10-16T07:03:38;101116.00;;;14.90
65823;BMP180;52585;47.566;19.056;2022-10-16T07:06:08;101123.80;;;14.90
65823;BMP180;52585;47.566;19.056;2022-10-16T07:08:38;101123.00;;;15.00
65823;BMP180;52585;47.566;19.056;2022-10-16T07:11:12;101124.80;;;15.00
65823;BMP180;52585;47.566;19.056;2022-10-16T07:13:41;101133.40;;;15.00
65823;BMP180;52585;47.566;19.056;2022-10-16T07:16:14;101145.60;;;15.00
65823;BMP180;52585;47.566;19.056;2022-10-16T07:18:41;101138.20;;;15.02
65823;BMP180;52585;47.566;19.056;2022-10-16T07:21:17;101147.80;;;15.10
65823;BMP180;52585;47.566;19.056;2022-10-16T07:23:45;101147.80;;;15.10
65823;BMP180;52585;47.566;19.056;2022-10-16T07:26:11;101149.00;;;15.10
65823;BMP180;52585;47.566;19.056;2022-10-16T07:28:38;101152.20;;;15.10
65823;BMP180;52585;47.566;19.056;2022-10-16T07:31:09;101156.00;;;15.16
65823;BMP180;52585;47.566;19.056;2022-10-16T07:33:37;101164.80;;;15.20
65823;BMP180;52585;47.566;19.056;2022-10-16T07:36:04;101166.20;;;15.20
65823;BMP180;52585;47.566;19.056;2022-10-16T07:38:31;101163.80;;;15.20
65823;BMP180;52585;47.566;19.056;2022-10-16T07:40:59;101166.60;;;15.30
65823;BMP180;52585;47.566;19.056;2022-10-16T07:43:28;101169.00;;;15.30
65823;BMP180;52585;47.566;19.056;2022-10-16T07:45:55;101175.80;;;15.30
65823;BMP180;52585;47.566;19.056;2022-10-16T07:48:23;101174.00;;;15.30
65823;BMP180;52585;47.566;19.056;2022-10-16T07:50:50;101175.40;;;15.30
65823;BMP180;52585;47.566;19.056;2022-10-16T07:53:17;101168.00;;;15.34
65823;BMP180;52585;47.566;19.056;2022-10-16T07:55:43;101165.40;;;15.40
65823;BMP180;52585;47.566;19.056;2022-10-16T07:58:09;101176.00;;;15.40
65823;BMP180;52585;47.566;19.056;2022-10-16T08:00:37;101174.60;;;15.40
65823;BMP180;52585;47.566;19.056;2022-10-16T08:03:04;101176.00;;;15.40
65823;BMP180;52585;47.566;19.056;2022-10-16T08:05:32;101176.80;;;15.48
65823;BMP180;52585;47.566;19.056;2022-10-16T08:07:59;101180.20;;;15.50
65823;BMP180;52585;47.566;19.056;2022-10-16T08:10:27;101183.60;;;15.50
65823;BMP180;52585;47.566;19.056;2022-10-16T08:12:53;101190.40;;;15.50
65823;BMP180;52585;47.566;19.056;2022-10-16T08:15:22;101189.20;;;15.50
65823;BMP180;52585;47.566;19.056;2022-10-16T08:18:00;101190.80;;;15.52
65823;BMP180;52585;47.566;19.056;2022-10-16T08:20:27;101194.60;;;15.60
65823;BMP180;52585;47.566;19.056;2022-10-16T08:22:55;101200.60;;;15.60
65823;BMP180;52585;47.566;19.056;2022-10-16T08:25:22;101200.60;;;15.60
65823;BMP180;52585;47.566;19.056;2022-10-16T08:27:51;101206.20;;;15.70
65823;BMP180;52585;47.566;19.056;2022-10-16T08:30:19;101204.60;;;15.70
65823;BMP180;52585;47.566;19.056;2022-10-16T08:32:46;101202.40;;;15.70
65823;BMP180;52585;47.566;19.056;2022-10-16T08:35:14;101204.00;;;15.70
65823;BMP180;52585;47.566;19.056;2022-10-16T08:37:41;101208.60;;;15.80
65823;BMP180;52585;47.566;19.056;2022-10-16T08:40:27;101214.60;;;15.80
65823;BMP180;52585;47.566;19.056;2022-10-16T08:48:53;101215.40;;;15.90
65823;BMP180;52585;47.566;19.056;2022-10-16T08:51:32;101215.00;;;15.90
65823;BMP180;52585;47.566;19.056;2022-10-16T08:54:14;101217.60;;;15.90
65823;BMP180;52585;47.566;19.056;2022-10-16T08:56:44;101217.40;;;15.98
65823;BMP180;52585;47.566;19.056;2022-10-16T08:59:16;101219.60;;;16.00
65823;BMP180;52585;47.566;19.056;2022-10-16T09:01:50;101223.80;;;16.00
65823;BMP180;52585;47.566;19.056;2022-10-16T09:04:52;101223.80;;;16.00
65823;BMP180;52585;47.566;19.056;2022-10-16T09:21:26;101223.40;;;16.20
65823;BMP180;52585;47.566;19.056;2022-10-16T09:23:58;101219.20;;;16.30
65823;BMP180;52585;47.566;19.056;2022-10-16T09:26:25;101224.00;;;16.30
65823;BMP180;52585;47.566;19.056;2022-10-16T09:28:54;101220.20;;;16.30
65823;BMP180;52585;47.566;19.056;2022-10-16T09:31:22;101221.20;;;16.34
65823;BMP180;52585;47.566;19.056;2022-10-16T09:33:58;101224.20;;;16.40
65823;BMP180;52585;47.566;19.056;2022-10-16T09:36:27;101220.00;;;16.40
65823;BMP180;52585;47.566;19.056;2022-10-16T09:39:10;101223.80;;;16.40
65823;BMP180;52585;47.566;19.056;2022-10-16T09:41:41;101225.20;;;16.50
65823;BMP180;52585;47.566;19.056;2022-10-16T09:44:30;101228.80;;;16.50
65823;BMP180;52585;47.566;19.056;2022-10-16T09:47:16;101236.00;;;16.50
65823;BMP180;52585;47.566;19.056;2022-10-16T09:50:03;101236.00;;;16.60
65823;BMP180;52585;47.566;19.056;2022-10-16T09:52:33;101238.80;;;16.60
65823;BMP180;52585;47.566;19.056;2022-10-16T09:55:15;101239.40;;;16.60
65823;BMP180;52585;47.566;19.056;2022-10-16T09:57:56;101240.00;;;16.70
65823;BMP180;52585;47.566;19.056;2022-10-16T10:00:24;101239.00;;;16.70
65823;BMP180;52585;47.566;19.056;2022-10-16T10:02:52;101239.00;;;16.70
65823;BMP180;52585;47.566;19.056;2022-10-16T10:05:25;101243.20;;;16.80
65823;BMP180;52585;47.566;19.056;2022-10-16T10:08:18;101241.80;;;16.80
65823;BMP180;52585;47.566;19.056;2022-10-16T10:10:48;101236.40;;;16.82
65823;BMP180;52585;47.566;19.056;2022-10-16T10:13:22;101231.60;;;16.88
65823;BMP180;52585;47.566;19.056;2022-10-16T10:15:50;101227.00;;;16.90
65823;BMP180;52585;47.566;19.056;2022-10-16T10:18:21;101225.20;;;16.90
65823;BMP180;52585;47.566;19.056;2022-10-16T10:21:02;101219.20;;;17.00
65823;BMP180;52585;47.566;19.056;2022-10-16T10:23:29;101220.20;;;17.00
65823;BMP180;52585;47.566;19.056;2022-10-16T10:26:18;101216.00;;;17.00
65823;BMP180;52585;47.566;19.056;2022-10-16T10:34:38;101214.40;;;17.10
65823;BMP180;52585;47.566;19.056;2022-10-16T10:49:34;101221.80;;;17.38
65823;BMP180;52585;47.566;19.056;2022-10-16T11:00:43;101217.20;;;17.40
65823;BMP180;52585;47.566;19.056;2022-10-16T11:03:44;101217.00;;;17.40
65823;BMP180;52585;47.566;19.056;2022-10-16T11:08:48;101220.40;;;17.50
65823;BMP180;52585;47.566;19.056;2022-10-16T11:11:29;101211.60;;;17.50
65823;BMP180;52585;47.566;19.056;2022-10-16T11:14:30;101204.60;;;17.50
65823;BMP180;52585;47.566;19.056;2022-10-16T11:17:24;101195.20;;;17.56
65823;BMP180;52585;47.566;19.056;2022-10-16T11:19:54;101200.80;;;17.60
65823;BMP180;52585;47.566;19.056;2022-10-16T11:22:52;101199.40;;;17.60
65823;BMP180;52585;47.566;19.056;2022-10-16T11:25:29;101197.20;;;17.60
65823;BMP180;52585;47.566;19.056;2022-10-16T11:28:14;101195.80;;;17.60
65823;BMP180;52585;47.566;19.056;2022-10-16T11:31:14;101193.80;;;17.70
65823;BMP180;52585;47.566;19.056;2022-10-16T11:36:37;101183.80;;;17.70
65823;BMP180;52585;47.566;19.056;2022-10-16T11:41:42;101184.60;;;17.80
65823;BMP180;52585;47.566;19.056;2022-10-16T11:44:20;101182.20;;;17.80
65823;BMP180;52585;47.566;19.056;2022-10-16T11:49:34;101185.20;;;17.90
65823;BMP180;52585;47.566;19.056;2022-10-16T11:52:37;101185.60;;;17.90
65823;BMP180;52585;47.566;19.056;2022-10-16T11:55:20;101183.20;;;17.90
65823;BMP180;52585;47.566;19.056;2022-10-16T11:57:53;101182.00;;;17.90
65823;BMP180;52585;47.566;19.056;2022-10-16T12:00:30;101179.60;;;17.90
65823;BMP180;52585;47.566;19.056;2022-10-16T12:08:30;101174.40;;;17.90
65823;BMP180;52585;47.566;19.056;2022-10-16T12:11:39;101173.00;;;17.90
65823;BMP180;52585;47.566;19.056;2022-10-16T12:14:19;101178.00;;;18.00
65823;BMP180;52585;47.566;19.056;2022-10-16T12:17:04;101172.80;;;18.00
65823;BMP180;52585;47.566;19.056;2022-10-16T12:19:32;101173.20;;;18.00
65823;BMP180;52585;47.566;19.056;2022-10-16T12:22:02;101173.80;;;18.00
65823;BMP180;52585;47.566;19.056;2022-10-16T12:24:38;101171.40;;;18.10
65823;BMP180;52585;47.566;19.056;2022-10-16T12:27:20;101173.80;;;18.10
65823;BMP180;52585;47.566;19.056;2022-10-16T12:30:00;101169.40;;;18.10
65823;BMP180;52585;47.566;19.056;2022-10-16T12:32:36;101174.20;;;18.10
65823;BMP180;52585;47.566;19.056;2022-10-16T12:35:16;101166.60;;;18.12
65823;BMP180;52585;47.566;19.056;2022-10-16T12:37:44;101163.80;;;18.20
65823;BMP180;52585;47.566;19.056;2022-10-16T12:40:15;101164.40;;;18.20
65823;BMP180;52585;47.566;19.056;2022-10-16T12:42:42;101165.80;;;18.20
65823;BMP180;52585;47.566;19.056;2022-10-16T12:45:32;101168.60;;;18.20
65823;BMP180;52585;47.566;19.056;2022-10-16T12:48:02;101170.00;;;18.20
65823;BMP180;52585;47.566;19.056;2022-10-16T12:50:36;101167.40;;;18.20
65823;BMP180;52585;47.566;19.056;2022-10-16T12:53:20;101170.40;;;18.20
65823;BMP180;52585;47.566;19.056;2022-10-16T13:02:07;101176.00;;;18.30
65823;BMP180;52585;47.566;19.056;2022-10-16T13:28:21;101179.40;;;18.30
65823;BMP180;52585;47.566;19.056;2022-10-16T13:30:58;101184.40;;;18.32
65823;BMP180;52585;47.566;19.056;2022-10-16T13:33:39;101181.60;;;18.38
65823;BMP180;52585;47.566;19.056;2022-10-16T13:36:21;101179.20;;;18.40
65823;BMP180;52585;47.566;19.056;2022-10-16T13:38:48;101177.00;;;18.40
65823;BMP180;52585;47.566;19.056;2022-10-16T13:41:26;101177.80;;;18.40
65823;BMP180;52585;47.566;19.056;2022-10-16T13:43:54;101178.00;;;18.40
65823;BMP180;52585;47.566;19.056;2022-10-16T13:46:23;101181.00;;;18.40
65823;BMP180;52585;47.566;19.056;2022-10-16T13:49:00;101176.20;;;18.50
65823;BMP180;52585;47.566;19.056;2022-10-16T13:51:27;101179.00;;;18.50
65823;BMP180;52585;47.566;19.056;2022-10-16T13:53:56;101179.80;;;18.50
65823;BMP180;52585;47.566;19.056;2022-10-16T13:56:28;101181.20;;;18.50
65823;BMP180;52585;47.566;19.056;2022-10-16T13:59:03;101179.60;;;18.50
65823;BMP180;52585;47.566;19.056;2022-10-16T14:01:44;101185.80;;;18.50
65823;BMP180;52585;47.566;19.056;2022-10-16T14:04:13;101192.00;;;18.50
65823;BMP180;52585;47.566;19.056;2022-10-16T14:06:46;101189.20;;;18.50
65823;BMP180;52585;47.566;19.056;2022-10-16T14:09:30;101191.20;;;18.50
65823;BMP180;52585;47.566;19.056;2022-10-16T14:12:03;101186.80;;;18.60
65823;BMP180;52585;47.566;19.056;2022-10-16T14:14:54;101187.80;;;18.60
65823;BMP180;52585;47.566;19.056;2022-10-16T14:17:29;101192.00;;;18.60
65823;BMP180;52585;47.566;19.056;2022-10-16T14:19:59;101184.60;;;18.60
65823;BMP180;52585;47.566;19.056;2022-10-16T14:22:40;101189.60;;;18.60
65823;BMP180;52585;47.566;19.056;2022-10-16T14:25:35;101184.20;;;18.60
65823;BMP180;52585;47.566;19.056;2022-10-16T14:33:32;101190.80;;;18.60
65823;BMP180;52585;47.566;19.056;2022-10-16T14:38:31;101190.40;;;18.60
65823;BMP180;52585;47.566;19.056;2022-10-16T14:40:59;101199.20;;;18.60
65823;BMP180;52585;47.566;19.056;2022-10-16T14:43:41;101199.20;;;18.60
65823;BMP180;52585;47.566;19.056;2022-10-16T14:46:14;101201.80;;;18.60
65823;BMP180;52585;47.566;19.056;2022-10-16T14:48:46;101200.40;;;18.60
65823;BMP180;52585;47.566;19.056;2022-10-16T14:51:20;101199.60;;;18.60
65823;BMP180;52585;47.566;19.056;2022-10-16T14:53:47;101201.00;;;18.60
65823;BMP180;52585;47.566;19.056;2022-10-16T14:56:25;101198.80;;;18.60
65823;BMP180;52585;47.566;19.056;2022-10-16T14:58:52;101197.60;;;18.60
65823;BMP180;52585;47.566;19.056;2022-10-16T15:01:19;101198.80;;;18.60
65823;BMP180;52585;47.566;19.056;2022-10-16T15:03:45;101196.80;;;18.60
65823;BMP180;52585;47.566;19.056;2022-10-16T15:06:14;101197.40;;;18.60
65823;BMP180;52585;47.566;19.056;2022-10-16T15:08:41;101194.80;;;18.60
65823;BMP180;52585;47.566;19.056;2022-10-16T15:11:16;101200.00;;;18.60
65823;BMP180;52585;47.566;19.056;2022-10-16T15:13:43;101198.40;;;18.60
65823;BMP180;52585;47.566;19.056;2022-10-16T15:16:13;101203.20;;;18.60
65823;BMP180;52585;47.566;19.056;2022-10-16T15:18:39;101212.00;;;18.60
65823;BMP180;52585;47.566;19.056;2022-10-16T15:21:07;101216.60;;;18.60
65823;BMP180;52585;47.566;19.056;2022-10-16T15:23:34;101221.20;;;18.60
65823;BMP180;52585;47.566;19.056;2022-10-16T15:26:00;101217.00;;;18.60
65823;BMP180;52585;47.566;19.056;2022-10-16T15:28:26;101220.00;;;18.60
65823;BMP180;52585;47.566;19.056;2022-10-16T15:30:55;101220.40;;;18.60
65823;BMP180;52585;47.566;19.056;2022-10-16T15:33:28;101219.20;;;18.60
65823;BMP180;52585;47.566;19.056;2022-10-16T15:35:59;101218.00;;;18.58
65823;BMP180;52585;47.566;19.056;2022-10-16T15:38:27;101219.20;;;18.54
65823;BMP180;52585;47.566;19.056;2022-10-16T15:40:54;101215.00;;;18.50
65823;BMP180;52585;47.566;19.056;2022-10-16T15:43:21;101217.40;;;18.50
65823;BMP180;52585;47.566;19.056;2022-10-16T15:46:04;101224.40;;;18.50
65823;BMP180;52585;47.566;19.056;2022-10-16T15:48:31;101226.20;;;18.50
65823;BMP180;52585;47.566;19.056;2022-10-16T15:50:59;101228.00;;;18.42
65823;BMP180;52585;47.566;19.056;2022-10-16T15:53:26;101231.20;;;18.40
65823;BMP180;52585;47.566;19.056;2022-10-16T15:55:52;101239.00;;;18.40
65823;BMP180;52585;47.566;19.056;2022-10-16T15:58:18;101239.80;;;18.40
65823;BMP180;52585;47.566;19.056;2022-10-16T16:00:44;101244.80;;;18.30
65823;BMP180;52585;47.566;19.056;2022-10-16T16:03:11;101248.20;;;18.30
65823;BMP180;52585;47.566;19.056;2022-10-16T16:05:40;101257.20;;;18.30
65823;BMP180;52585;47.566;19.056;2022-10-16T16:08:06;101259.80;;;18.30
65823;BMP180;52585;47.566;19.056;2022-10-16T16:11:23;101257.80;;;18.20
65823;BMP180;52585;47.566;19.056;2022-10-16T16:13:37;101266.20;;;18.20
65823;BMP180;52585;47.566;19.056;2022-10-16T16:16:09;101273.80;;;18.20
65823;BMP180;52585;47.566;19.056;2022-10-16T16:18:35;101276.40;;;18.20